Time;durP1;ratioP1;P1;durP2;ratioP2;P2;SDS_P1;SDS_P2;PMS_P1;PMS_P2;Temp;Humidity;BMP_temperature;BMP_pressure;BME280_temperature;BME280_humidity;BME280_pressure;Samples;Min_cycle;Max_cycle;Signal;HPM_P1;HPM_P2
2022/06/25 00:02:32;;;;;;;;;;;;;;;;;;10415567;28;19925;-60
2022/06/25 00:07:34;;;;;;;;;;;;;;;;;;10415600;28;19960;-61
2022/06/25 00:12:37;;;;;;;;;;;;;;;;;;10414716;28;19929;-60
2022/06/25 00:17:39;;;;;;;;;;;;;;;;;;10414738;28;20387;-60
2022/06/25 00:22:41;;;;;;;;;;;;;;;;;;10415786;28;19925;-60
2022/06/25 00:27:43;;;;;;;;;;;;;;;;;;10415686;28;20368;-60
2022/06/25 00:32:45;;;;;;;;;;;;;;;;;;10422840;28;19929;-60
2022/06/25 00:37:47;;;;;;;;;;;;;;;;;;10422549;28;19925;-60
2022/06/25 00:42:50;;;;;;;;;;;;;;;;;;10423565;28;19932;-60
2022/06/25 00:47:52;;;;;;;;;;;;;;;;;;10421666;28;20269;-60
2022/06/25 00:52:54;;;;;;;;;;;;;;;;;;10423222;28;19925;-60
2022/06/25 00:57:56;;;;;;;;;;;;;;;;;;10421821;28;19933;-60
2022/06/25 01:02:58;;;;;;;;;;;;;;;;;;10422781;28;19932;-60
2022/06/25 01:08:00;;;;;;;;;;;;;;;;;;10422644;28;19925;-60
2022/06/25 01:13:02;;;;;;;;;;;;;;;;;;10420595;28;20380;-60
2022/06/25 01:18:05;;;;;;;;;;;;;;;;;;10421059;28;19929;-60
2022/06/25 01:23:07;;;;;;;;;;;;;;;;;;10456487;28;20286;-60
2022/06/25 01:28:09;;;;;;;;;;;;;;;;;;10461348;28;19925;-61
2022/06/25 01:33:11;;;;;;;;;;;;;;;;;;10461198;28;20371;-63
2022/06/25 01:38:13;;;;;;;;;;;;;;;;;;10461153;28;19925;-63
2022/06/25 01:43:15;;;;;;;;;;;;;;;;;;10459749;28;19962;-63
2022/06/25 01:48:17;;;;;;;;;;;;;;;;;;10445936;28;20311;-62
2022/06/25 01:53:19;;;;;;;;;;;;;;;;;;10419232;28;20296;-62
2022/06/25 01:58:22;;;;;;;;;;;;;;;;;;10419573;28;19932;-62
2022/06/25 02:03:24;;;;;;;;;;;;;;;;;;10444764;28;19924;-62
2022/06/25 02:08:26;;;;;;;;;;;;;;;;;;10460459;28;19936;-62
2022/06/25 02:13:28;;;;;;;;;;;;;;;;;;10459075;28;20390;-62
2022/06/25 02:18:30;;;;;;;;;;;;;;;;;;10442960;28;20376;-62
2022/06/25 02:23:32;;;;;;;;;;;;;;;;;;10419676;28;19932;-62
2022/06/25 02:28:34;;;;;;;;;;;;;;;;;;10419156;28;19931;-63
2022/06/25 02:33:36;;;;;;;;;;;;;;;;;;10418217;28;19994;-63
2022/06/25 02:38:38;;;;;;;;;;;;;;;;;;10417296;28;19925;-63
2022/06/25 02:43:40;;;;;;;;;;;;;;;;;;10418865;28;19932;-63
2022/06/25 02:48:43;;;;;;;;;;;;;;;;;;10451445;28;19929;-63
2022/06/25 02:53:45;;;;;;;;;;;;;;;;;;10457229;28;20298;-63
2022/06/25 02:58:56;;;;;;;;;;;;;;;;;;10458399;28;19925;-63
2022/06/25 03:03:58;;;;;;;;;;;;;;;;;;10456047;28;19925;-63
2022/06/25 03:09:00;;;;;;;;;;;;;;;;;;10458192;28;19971;-63
2022/06/25 03:14:02;;;;;;;;;;;;;;;;;;10442325;28;19924;-63
2022/06/25 03:19:05;;;;;;;;;;;;;;;;;;10452630;28;19932;-63
2022/06/25 03:24:07;;;;;;;;;;;;;;;;;;10455362;28;19946;-63
2022/06/25 03:29:09;;;;;;;;;;;;;;;;;;10456898;28;20401;-63
2022/06/25 03:34:11;;;;;;;;;;;;;;;;;;10457102;28;19931;-62
2022/06/25 03:39:13;;;;;;;;;;;;;;;;;;10457350;28;19925;-63
2022/06/25 03:44:15;;;;;;;;;;;;;;;;;;10455235;28;19929;-63
2022/06/25 03:49:17;;;;;;;;;;;;;;;;;;10457173;28;19932;-62
2022/06/25 03:54:20;;;;;;;;;;;;;;;;;;10456172;28;20368;-63
2022/06/25 03:59:22;;;;;;;;;;;;;;;;;;10456938;28;19925;-63
2022/06/25 04:04:24;;;;;;;;;;;;;;;;;;10459298;28;19925;-63
2022/06/25 04:09:26;;;;;;;;;;;;;;;;;;10455981;28;19999;-63
2022/06/25 04:14:28;;;;;;;;;;;;;;;;;;10422818;28;19925;-63
2022/06/25 04:19:30;;;;;;;;;;;;;;;;;;10423327;28;19925;-62
2022/06/25 04:24:32;;;;;;;;;;;;;;;;;;10423682;28;19925;-63
2022/06/25 04:29:34;;;;;;;;;;;;;;;;;;10423003;28;19925;-63
2022/06/25 04:34:36;;;;;;;;;;;;;;;;;;10422787;28;19932;-63
2022/06/25 04:39:38;;;;;;;;;;;;;;;;;;10432711;28;19931;-63
2022/06/25 04:44:40;;;;;;;;;;;;;;;;;;10461421;28;19929;-63
2022/06/25 04:49:43;;;;;;;;;;;;;;;;;;10462922;28;20291;-63
2022/06/25 04:54:45;;;;;;;;;;;;;;;;;;10462393;28;20269;-63
2022/06/25 04:59:49;;;;;;;;;;;;;;;;;;10463021;28;19925;-63
2022/06/25 05:04:51;;;;;;;;;;;;;;;;;;10424450;28;20372;-63
2022/06/25 05:09:53;;;;;;;;;;;;;;;;;;10449166;28;19931;-63
2022/06/25 05:14:55;;;;;;;;;;;;;;;;;;10426555;28;19931;-63
2022/06/25 05:19:57;;;;;;;;;;;;;;;;;;10421048;28;19930;-63
2022/06/25 05:24:59;;;;;;;;;;;;;;;;;;10458631;28;20402;-63
2022/06/25 05:30:01;;;;;;;;;;;;;;;;;;10461967;28;19925;-63
2022/06/25 05:35:04;;;;;;;;;;;;;;;;;;10460343;28;19933;-63
2022/06/25 05:40:06;;;;;;;;;;;;;;;;;;10459234;28;19947;-63
2022/06/25 05:45:08;;;;;;;;;;;;;;;;;;10459139;28;20260;-63
2022/06/25 05:50:10;;;;;;;;;;;;;;;;;;10461300;28;19925;-62
2022/06/25 05:55:12;;;;;;;;;;;;;;;;;;10420590;28;19925;-63
2022/06/25 06:00:15;;;;;;;;;;;;;;;;;;10430895;28;20376;-63
2022/06/25 06:05:17;;;;;;;;;;;;;;;;;;10418839;28;20339;-63
2022/06/25 06:10:19;;;;;;;;;;;;;;;;;;10418471;28;19947;-63
2022/06/25 06:15:21;;;;;;;;;;;;;;;;;;10417974;28;19925;-63
2022/06/25 06:20:23;;;;;;;;;;;;;;;;;;10418837;28;19925;-63
2022/06/25 06:25:25;;;;;;;;;;;;;;;;;;10458164;28;19931;-63
2022/06/25 06:30:27;;;;;;;;;;;;;;;;;;10451096;28;19952;-63
2022/06/25 06:35:33;;;;;;;;;;;;;;;;;;10458484;28;20295;-63
2022/06/25 06:40:36;;;;;;;;;;;;;;;;;;10456935;28;19933;-63
2022/06/25 06:45:38;;;;;;;;;;;;;;;;;;10458348;28;19924;-63
2022/06/25 06:50:40;;;;;;;;;;;;;;;;;;10458512;28;19974;-64
2022/06/25 06:55:42;;;;;;;;;;;;;;;;;;10456535;28;19971;-64
2022/06/25 07:00:44;;;;;;;;;;;;;;;;;;10424977;28;19925;-63
2022/06/25 07:05:47;;;;;;;;;;;;;;;;;;10416415;28;19936;-63
2022/06/25 07:10:49;;;;;;;;;;;;;;;;;;10417249;28;19925;-64
2022/06/25 07:15:51;;;;;;;;;;;;;;;;;;10415825;28;19925;-64
2022/06/25 07:20:53;;;;;;;;;;;;;;;;;;10414418;28;19925;-63
2022/06/25 07:25:55;;;;;;;;;;;;;;;;;;10414746;28;19925;-64
2022/06/25 07:30:57;;;;;;;;;;;;;;;;;;10415312;28;20291;-62
2022/06/25 07:35:59;;;;;;;;;;;;;;;;;;10416730;28;19933;-64
2022/06/25 07:41:01;;;;;;;;;;;;;;;;;;10416934;28;19940;-63
2022/06/25 07:46:04;;;;;;;;;;;;;;;;;;10413365;28;20287;-64
2022/06/25 07:56:27;;;;;;;;;;;;;;;;;;10416755;28;19934;-63
2022/06/25 08:01:29;;;;;;;;;;;;;;;;;;10416742;28;19926;-64
2022/06/25 08:06:34;;;;;;;;;;;;;;;;;;10415603;28;19932;-63
2022/06/25 08:11:36;;;;;;;;;;;;;;;;;;10413609;28;20273;-63
2022/06/25 08:16:38;;;;;;;;;;;;;;;;;;10417634;28;19932;-64
2022/06/25 08:21:40;;;;;;;;;;;;;;;;;;10444383;28;19972;-63
2022/06/25 08:26:43;;;;;;;;;;;;;;;;;;10454685;28;19932;-63
2022/06/25 08:31:45;;;;;;;;;;;;;;;;;;10414668;28;19925;-63
2022/06/25 08:36:47;;;;;;;;;;;;;;;;;;10415802;28;20011;-64
2022/06/25 08:41:49;;;;;;;;;;;;;;;;;;10427326;28;19931;-63
2022/06/25 08:46:51;;;;;;;;;;;;;;;;;;10456018;28;19932;-63
2022/06/25 08:51:54;;;;;;;;;;;;;;;;;;10459247;28;19925;-63
2022/06/25 08:56:56;;;;;;;;;;;;;;;;;;10462945;28;19932;-64
2022/06/25 09:01:58;;;;;;;;;;;;;;;;;;10452816;28;20364;-63
2022/06/25 09:07:00;;;;;;;;;;;;;;;;;;10429181;28;19925;-64
2022/06/25 09:12:05;;;;;;;;;;;;;;;;;;10421181;28;19925;-64
2022/06/25 09:17:09;;;;;;;;;;;;;;;;;;10420656;28;20026;-64
2022/06/25 09:22:11;;;;;;;;;;;;;;;;;;10420962;28;19925;-63
2022/06/25 09:27:13;;;;;;;;;;;;;;;;;;10420765;28;20008;-64
2022/06/25 09:32:15;;;;;;;;;;;;;;;;;;10420566;28;19933;-64
2022/06/25 09:37:18;;;;;;;;;;;;;;;;;;10420501;28;20012;-63
2022/06/25 09:42:20;;;;;;;;;;;;;;;;;;10420238;28;19929;-63
2022/06/25 09:47:22;;;;;;;;;;;;;;;;;;10420062;28;19932;-63
2022/06/25 09:52:24;;;;;;;;;;;;;;;;;;10419883;28;19931;-63
2022/06/25 09:57:26;;;;;;;;;;;;;;;;;;10419711;28;19929;-64
2022/06/25 10:02:28;;;;;;;;;;;;;;;;;;10418604;28;20292;-63
2022/06/25 10:12:51;;;;;;;;;;;;;;;;;;10418835;28;19925;-64
2022/06/25 10:17:53;;;;;;;;;;;;;;;;;;10418022;28;20284;-63
2022/06/25 10:22:55;;;;;;;;;;;;;;;;;;10418488;28;19940;-64
2022/06/25 10:27:58;;;;;;;;;;;;;;;;;;10417798;28;19929;-64
2022/06/25 10:33:00;;;;;;;;;;;;;;;;;;10417452;28;20292;-63
2022/06/25 10:38:02;;;;;;;;;;;;;;;;;;10417165;28;19931;-63
2022/06/25 10:43:05;;;;;;;;;;;;;;;;;;10416740;28;20291;-64
2022/06/25 10:48:07;;;;;;;;;;;;;;;;;;10416930;28;19925;-63
2022/06/25 10:53:09;;;;;;;;;;;;;;;;;;10416730;28;20380;-64
2022/06/25 10:58:11;;;;;;;;;;;;;;;;;;10417102;28;19929;-63
2022/06/25 11:03:13;;;;;;;;;;;;;;;;;;10416981;28;20021;-64
2022/06/25 11:08:15;;;;;;;;;;;;;;;;;;10416931;28;19925;-63
2022/06/25 11:13:17;;;;;;;;;;;;;;;;;;10415687;28;20312;-63
2022/06/25 11:18:19;;;;;;;;;;;;;;;;;;10415956;28;19929;-64
2022/06/25 11:23:21;;;;;;;;;;;;;;;;;;10416353;28;19932;-64
2022/06/25 11:33:44;;;;;;;;;;;;;;;;;;10415444;28;20283;-60
2022/06/25 11:38:46;;;;;;;;;;;;;;;;;;10414225;28;19929;-61
2022/06/25 11:43:48;;;;;;;;;;;;;;;;;;10410559;28;19931;-60
2022/06/25 11:48:51;;;;;;;;;;;;;;;;;;10415019;28;20368;-61
2022/06/25 11:53:53;;;;;;;;;;;;;;;;;;10415390;28;19925;-61
2022/06/25 11:58:58;;;;;;;;;;;;;;;;;;10415423;28;19927;-60
2022/06/25 12:04:00;;;;;;;;;;;;;;;;;;10414885;28;19925;-61
2022/06/25 12:09:02;;;;;;;;;;;;;;;;;;10415388;28;19925;-61
2022/06/25 12:14:05;;;;;;;;;;;;;;;;;;10414691;28;19925;-61
2022/06/25 12:19:07;;;;;;;;;;;;;;;;;;10414970;28;19930;-61
2022/06/25 12:24:09;;;;;;;;;;;;;;;;;;10416389;28;19925;-61
2022/06/25 12:29:11;;;;;;;;;;;;;;;;;;10422256;28;19929;-61
2022/06/25 12:34:13;;;;;;;;;;;;;;;;;;10422630;28;19925;-61
2022/06/25 12:39:15;;;;;;;;;;;;;;;;;;10422506;28;19925;-61
2022/06/25 12:44:19;;;;;;;;;;;;;;;;;;10421357;28;19932;-62
2022/06/25 12:49:21;;;;;;;;;;;;;;;;;;10422449;28;19932;-61
2022/06/25 12:54:23;;;;;;;;;;;;;;;;;;10421562;28;20380;-61
2022/06/25 12:59:25;;;;;;;;;;;;;;;;;;10422020;28;19925;-60
2022/06/25 13:04:27;;;;;;;;;;;;;;;;;;10421137;28;19929;-61
2022/06/25 13:09:29;;;;;;;;;;;;;;;;;;10421061;28;19933;-61
2022/06/25 13:14:31;;;;;;;;;;;;;;;;;;10421425;28;19932;-61
2022/06/25 13:19:33;;;;;;;;;;;;;;;;;;10421300;28;19925;-61
2022/06/25 13:24:35;;;;;;;;;;;;;;;;;;10421089;28;19925;-61
2022/06/25 13:29:37;;;;;;;;;;;;;;;;;;10420368;28;19929;-61
2022/06/25 13:34:39;;;;;;;;;;;;;;;;;;10419665;28;20283;-62
2022/06/25 13:39:41;;;;;;;;;;;;;;;;;;10419641;28;19947;-61
2022/06/25 13:44:43;;;;;;;;;;;;;;;;;;10420116;28;19932;-61
2022/06/25 13:49:46;;;;;;;;;;;;;;;;;;10420029;28;19925;-61
2022/06/25 13:54:48;;;;;;;;;;;;;;;;;;10419049;28;20395;-61
2022/06/25 13:59:50;;;;;;;;;;;;;;;;;;10419309;28;19925;-61
2022/06/25 14:04:52;;;;;;;;;;;;;;;;;;10419110;28;19932;-62
2022/06/25 14:09:54;;;;;;;;;;;;;;;;;;10418399;28;20368;-61
2022/06/25 14:14:56;;;;;;;;;;;;;;;;;;10418767;28;19932;-61
2022/06/25 14:19:58;;;;;;;;;;;;;;;;;;10418615;28;19933;-61
2022/06/25 14:30:21;;;;;;;;;;;;;;;;;;10417678;28;19925;-61
2022/06/25 14:35:23;;;;;;;;;;;;;;;;;;10418100;28;20000;-61
2022/06/25 14:45:46;;;;;;;;;;;;;;;;;;10416652;28;20280;-61
2022/06/25 14:50:48;;;;;;;;;;;;;;;;;;10417418;28;19929;-62
2022/06/25 14:55:53;;;;;;;;;;;;;;;;;;10415989;28;20023;-61
2022/06/25 15:00:55;;;;;;;;;;;;;;;;;;10417868;28;19925;-61
2022/06/25 15:05:57;;;;;;;;;;;;;;;;;;10416529;28;19936;-61
2022/06/25 15:11:00;;;;;;;;;;;;;;;;;;10416983;28;19932;-61
2022/06/25 15:16:02;;;;;;;;;;;;;;;;;;10416456;28;19925;-68
2022/06/25 15:21:04;;;;;;;;;;;;;;;;;;10416606;28;19925;-61
2022/06/25 15:26:06;;;;;;;;;;;;;;;;;;10415420;28;19925;-61
2022/06/25 15:31:08;;;;;;;;;;;;;;;;;;10415681;28;19929;-61
2022/06/25 15:36:10;;;;;;;;;;;;;;;;;;10415181;28;19929;-61
2022/06/25 15:41:12;;;;;;;;;;;;;;;;;;10416058;28;19932;-61
2022/06/25 15:46:14;;;;;;;;;;;;;;;;;;10415310;28;19932;-61
2022/06/25 15:51:16;;;;;;;;;;;;;;;;;;10415407;28;19971;-60
2022/06/25 15:56:18;;;;;;;;;;;;;;;;;;10415345;28;20025;-61
2022/06/25 16:01:21;;;;;;;;;;;;;;;;;;10421493;28;19925;-61
2022/06/25 16:06:23;;;;;;;;;;;;;;;;;;10423904;28;19933;-60
2022/06/25 16:11:37;;;;;;;;;;;;;;;;;;10421827;28;19933;-60
2022/06/25 16:16:39;;;;;;;;;;;;;;;;;;10403755;28;19929;-60
2022/06/25 16:21:41;;;;;;;;;;;;;;;;;;10422629;28;19956;-60
2022/06/25 16:26:43;;;;;;;;;;;;;;;;;;10422902;28;19932;-60
2022/06/25 16:31:46;;;;;;;;;;;;;;;;;;10421958;28;19925;-60
2022/06/25 16:36:48;;;;;;;;;;;;;;;;;;10418500;28;19983;-60
2022/06/25 16:41:50;;;;;;;;;;;;;;;;;;10408665;28;19925;-60
2022/06/25 16:46:53;;;;;;;;;;;;;;;;;;10421153;28;19925;-61
2022/06/25 16:51:55;;;;;;;;;;;;;;;;;;10402733;28;20392;-61
2022/06/25 16:56:57;;;;;;;;;;;;;;;;;;10402610;28;19948;-60
2022/06/25 17:01:59;;;;;;;;;;;;;;;;;;10418188;28;19929;-61
2022/06/25 17:07:01;;;;;;;;;;;;;;;;;;10421002;28;19932;-61
2022/06/25 17:12:03;;;;;;;;;;;;;;;;;;10419289;28;20391;-60
2022/06/25 17:17:06;;;;;;;;;;;;;;;;;;10420322;28;19925;-61
2022/06/25 17:22:08;;;;;;;;;;;;;;;;;;10419625;28;19965;-60
2022/06/25 17:27:10;;;;;;;;;;;;;;;;;;10409802;28;19930;-61
2022/06/25 17:32:12;;;;;;;;;;;;;;;;;;10379267;28;19932;-60
2022/06/25 17:37:15;;;;;;;;;;;;;;;;;;10379018;28;19948;-61
2022/06/25 17:42:17;;;;;;;;;;;;;;;;;;10379153;28;19929;-60
2022/06/25 17:47:19;;;;;;;;;;;;;;;;;;10379303;28;19933;-60
2022/06/25 17:52:21;;;;;;;;;;;;;;;;;;10378702;28;20351;-60
2022/06/25 17:57:23;;;;;;;;;;;;;;;;;;10378950;28;19932;-61
2022/06/25 18:02:25;;;;;;;;;;;;;;;;;;10378633;28;19926;-61
2022/06/25 18:07:27;;;;;;;;;;;;;;;;;;10378595;28;19933;-61
2022/06/25 18:12:30;;;;;;;;;;;;;;;;;;10377677;28;20285;-61
2022/06/25 18:17:32;;;;;;;;;;;;;;;;;;10378105;28;19926;-61
2022/06/25 18:22:34;;;;;;;;;;;;;;;;;;10376818;28;19932;-60
2022/06/25 18:27:36;;;;;;;;;;;;;;;;;;10377018;28;20285;-60
2022/06/25 18:32:38;;;;;;;;;;;;;;;;;;10377615;28;19936;-61
2022/06/25 18:37:40;;;;;;;;;;;;;;;;;;10402783;28;19932;-60
2022/06/25 18:42:42;;;;;;;;;;;;;;;;;;10409004;28;20296;-60
2022/06/25 18:47:45;;;;;;;;;;;;;;;;;;10417020;28;19992;-60
2022/06/25 18:52:47;;;;;;;;;;;;;;;;;;10417001;28;19925;-60
2022/06/25 18:57:49;;;;;;;;;;;;;;;;;;10416650;28;19936;-61
2022/06/25 19:02:51;;;;;;;;;;;;;;;;;;10417086;28;19931;-60
2022/06/25 19:07:54;;;;;;;;;;;;;;;;;;10416343;28;19925;-60
2022/06/25 19:12:56;;;;;;;;;;;;;;;;;;10417388;28;19932;-60
2022/06/25 19:17:58;;;;;;;;;;;;;;;;;;10416728;28;19925;-61
2022/06/25 19:23:00;;;;;;;;;;;;;;;;;;10415916;28;20276;-60
2022/06/25 19:28:02;;;;;;;;;;;;;;;;;;10415217;28;19931;-60
2022/06/25 19:33:05;;;;;;;;;;;;;;;;;;10415772;28;19925;-60
2022/06/25 19:38:09;;;;;;;;;;;;;;;;;;10415603;28;20218;-60
2022/06/25 19:43:11;;;;;;;;;;;;;;;;;;10415828;28;19925;-60
2022/06/25 19:48:13;;;;;;;;;;;;;;;;;;10416462;28;19925;-60
2022/06/25 19:53:15;;;;;;;;;;;;;;;;;;10416011;28;19925;-60
2022/06/25 19:58:20;;;;;;;;;;;;;;;;;;10415263;28;19925;-60
2022/06/25 20:03:22;;;;;;;;;;;;;;;;;;10415448;28;19932;-60
2022/06/25 20:08:24;;;;;;;;;;;;;;;;;;10414588;28;20295;-60
2022/06/25 20:13:27;;;;;;;;;;;;;;;;;;10414654;28;19962;-60
2022/06/25 20:18:29;;;;;;;;;;;;;;;;;;10415990;28;19930;-61
2022/06/25 20:23:31;;;;;;;;;;;;;;;;;;10415306;28;19932;-61
2022/06/25 20:28:33;;;;;;;;;;;;;;;;;;10414436;28;19925;-60
2022/06/25 20:33:35;;;;;;;;;;;;;;;;;;10408671;28;19931;-61
2022/06/25 20:38:37;;;;;;;;;;;;;;;;;;10373680;28;20415;-60
2022/06/25 20:43:39;;;;;;;;;;;;;;;;;;10395778;28;20291;-60
2022/06/25 20:48:41;;;;;;;;;;;;;;;;;;10421942;28;19925;-60
2022/06/25 20:53:43;;;;;;;;;;;;;;;;;;10422228;28;19932;-60
2022/06/25 20:58:45;;;;;;;;;;;;;;;;;;10422123;28;19933;-60
2022/06/25 21:09:08;;;;;;;;;;;;;;;;;;10420966;28;20265;-60
2022/06/25 21:14:10;;;;;;;;;;;;;;;;;;10420982;28;19932;-61
2022/06/25 21:19:18;;;;;;;;;;;;;;;;;;10421317;28;19925;-60
2022/06/25 21:24:20;;;;;;;;;;;;;;;;;;10420840;28;19925;-60
2022/06/25 21:29:22;;;;;;;;;;;;;;;;;;10419620;28;19926;-60
2022/06/25 21:34:24;;;;;;;;;;;;;;;;;;10421389;28;20008;-60
2022/06/25 21:39:26;;;;;;;;;;;;;;;;;;10420371;28;19931;-60
2022/06/25 21:44:28;;;;;;;;;;;;;;;;;;10419530;28;20288;-60
2022/06/25 21:49:30;;;;;;;;;;;;;;;;;;10418984;28;19933;-61
2022/06/25 21:54:32;;;;;;;;;;;;;;;;;;10420221;28;19925;-61
2022/06/25 21:59:34;;;;;;;;;;;;;;;;;;10419570;28;19940;-60
2022/06/25 22:04:36;;;;;;;;;;;;;;;;;;10418820;28;20277;-60
2022/06/25 22:09:39;;;;;;;;;;;;;;;;;;10419434;28;19929;-60
2022/06/25 22:14:41;;;;;;;;;;;;;;;;;;10419259;28;19925;-60
2022/06/25 22:19:43;;;;;;;;;;;;;;;;;;10418880;28;19925;-60
2022/06/25 22:24:45;;;;;;;;;;;;;;;;;;10417655;28;20300;-60
2022/06/25 22:29:47;;;;;;;;;;;;;;;;;;10417856;28;20280;-60
2022/06/25 22:34:49;;;;;;;;;;;;;;;;;;10418461;28;19944;-60
2022/06/25 22:39:51;;;;;;;;;;;;;;;;;;10417490;28;19931;-59
2022/06/25 22:44:53;;;;;;;;;;;;;;;;;;10417705;28;19940;-59
2022/06/25 22:49:55;;;;;;;;;;;;;;;;;;10416997;28;19925;-60
2022/06/25 22:54:57;;;;;;;;;;;;;;;;;;10417578;28;19932;-60
2022/06/25 22:59:59;;;;;;;;;;;;;;;;;;10416851;28;20386;-59
2022/06/25 23:05:01;;;;;;;;;;;;;;;;;;10416098;28;19948;-60
2022/06/25 23:10:03;;;;;;;;;;;;;;;;;;10415891;28;19925;-59
2022/06/25 23:15:06;;;;;;;;;;;;;;;;;;10416797;28;19947;-59
2022/06/25 23:20:08;;;;;;;;;;;;;;;;;;10415956;28;20278;-59
2022/06/25 23:25:10;;;;;;;;;;;;;;;;;;10416343;28;19925;-60
2022/06/25 23:30:12;;;;;;;;;;;;;;;;;;10415679;28;19925;-59
2022/06/25 23:35:14;;;;;;;;;;;;;;;;;;10416413;28;19925;-60
2022/06/25 23:40:16;;;;;;;;;;;;;;;;;;10416140;28;19925;-59
2022/06/25 23:45:18;;;;;;;;;;;;;;;;;;10455748;22;19925;-68
2022/06/25 23:50:20;;;;;;;;;;;;;;;;;;10497748;28;19928;-68
2022/06/25 23:55:22;;;;;;;;;;;;;;;;;;10497225;28;19963;-68
